createdAt,value
2022-09-20T00:01:12.541Z,11.10
2022-09-20T00:03:44.876Z,11.10
2022-09-20T00:06:14.746Z,11.10
2022-09-20T00:08:41.712Z,11.00
2022-09-20T00:11:11.680Z,11.00
2022-09-20T00:13:39.455Z,11.00
2022-09-20T00:16:08.376Z,10.90
2022-09-20T00:18:35.574Z,10.90
2022-09-20T00:21:03.464Z,10.90
2022-09-20T00:23:30.812Z,10.90
2022-09-20T00:25:59.941Z,10.80
2022-09-20T00:28:27.633Z,10.80
2022-09-20T00:30:55.965Z,10.70
2022-09-20T00:33:24.705Z,10.60
2022-09-20T00:35:51.394Z,10.60
2022-09-20T00:38:18.084Z,10.60
2022-09-20T00:40:45.563Z,10.60
2022-09-20T00:43:16.691Z,10.60
2022-09-20T00:45:47.227Z,10.60
2022-09-20T00:48:23.585Z,10.50
2022-09-20T00:50:57.076Z,10.50
2022-09-20T00:53:31.088Z,10.50
2022-09-20T00:56:03.689Z,10.50
2022-09-20T00:58:35.454Z,10.50
2022-09-20T01:01:04.329Z,10.60
2022-09-20T01:03:33.277Z,10.60
2022-09-20T01:06:06.532Z,10.70
2022-09-20T01:08:35.597Z,10.70
2022-09-20T01:11:02.947Z,10.80
2022-09-20T01:13:29.645Z,10.80
2022-09-20T01:16:00.399Z,10.90
2022-09-20T01:18:29.494Z,10.90
2022-09-20T01:20:56.769Z,10.90
2022-09-20T01:24:05.235Z,10.90
2022-09-20T01:27:05.475Z,11.00
2022-09-20T01:29:45.157Z,11.00
2022-09-20T01:32:16.836Z,11.00
2022-09-20T01:34:54.660Z,11.00
2022-09-20T01:37:37.485Z,11.10
2022-09-20T01:40:27.906Z,11.10
2022-09-20T01:43:30.072Z,11.20
2022-09-20T01:46:02.439Z,11.20
2022-09-20T01:48:37.688Z,11.20
2022-09-20T01:51:04.299Z,11.20
2022-09-20T01:53:42.970Z,11.20
2022-09-20T01:56:47.292Z,11.20
2022-09-20T01:59:32.196Z,11.20
2022-09-20T02:02:26.245Z,11.20
2022-09-20T02:05:20.249Z,11.20
2022-09-20T02:08:24.038Z,11.20
2022-09-20T02:10:58.747Z,11.20
2022-09-20T02:13:30.944Z,11.20
2022-09-20T02:16:09.931Z,11.20
2022-09-20T02:18:42.557Z,11.20
2022-09-20T02:21:34.232Z,11.20
2022-09-20T02:24:00.989Z,11.30
2022-09-20T02:26:39.739Z,11.30
2022-09-20T02:29:34.672Z,11.30
2022-09-20T02:32:16.372Z,11.30
2022-09-20T02:34:49.821Z,11.40
2022-09-20T02:37:44.540Z,11.40
2022-09-20T02:40:35.165Z,11.40
2022-09-20T02:43:17.724Z,11.40
2022-09-20T02:45:55.513Z,11.30
2022-09-20T02:48:29.892Z,11.30
2022-09-20T02:51:08.804Z,11.30
2022-09-20T02:54:00.467Z,11.40
2022-09-20T02:56:46.809Z,11.40
2022-09-20T02:59:19.524Z,11.40
2022-09-20T03:01:53.058Z,11.40
2022-09-20T03:04:53.439Z,11.30
2022-09-20T03:07:23.233Z,11.30
2022-09-20T03:10:23.865Z,11.30
2022-09-20T03:13:10.292Z,11.20
2022-09-20T03:16:01.317Z,11.20
2022-09-20T03:18:49.071Z,11.10
2022-09-20T03:21:52.372Z,11.10
2022-09-20T03:24:42.332Z,11.10
2022-09-20T03:27:27.257Z,11.00
2022-09-20T03:29:56.621Z,11.00
2022-09-20T03:32:44.835Z,11.00
2022-09-20T03:35:36.981Z,11.00
2022-09-20T03:38:16.979Z,11.00
2022-09-20T03:40:58.850Z,11.00
2022-09-20T03:44:01.553Z,11.10
2022-09-20T03:46:33.348Z,11.10
2022-09-20T03:49:31.705Z,11.10
2022-09-20T03:52:14.395Z,11.10
2022-09-20T03:54:46.943Z,11.10
2022-09-20T03:57:19.384Z,11.10
2022-09-20T04:00:04.888Z,11.10
2022-09-20T04:02:41.014Z,11.10
2022-09-20T04:05:33.847Z,11.10
2022-09-20T04:08:10.165Z,11.10
2022-09-20T04:11:08.644Z,11.10
2022-09-20T04:13:38.684Z,11.10
2022-09-20T04:16:06.508Z,11.10
2022-09-20T04:18:51.945Z,11.10
2022-09-20T04:21:52.689Z,11.10
2022-09-20T04:24:25.461Z,11.10
2022-09-20T04:26:59.017Z,11.10
2022-09-20T04:29:44.895Z,11.10
2022-09-20T04:32:27.210Z,11.10
2022-09-20T04:35:24.780Z,11.10
2022-09-20T04:37:52.471Z,11.00
2022-09-20T04:40:37.664Z,11.10
2022-09-20T04:43:24.291Z,11.10
2022-09-20T04:46:33.653Z,11.10
2022-09-20T04:49:22.182Z,11.10
2022-09-20T04:52:07.492Z,11.00
2022-09-20T04:55:22.665Z,11.10
2022-09-20T04:58:18.863Z,11.10
2022-09-20T05:01:17.209Z,11.10
2022-09-20T05:04:31.632Z,11.10
2022-09-20T05:07:38.481Z,11.10
2022-09-20T05:10:10.922Z,11.10
2022-09-20T05:13:05.222Z,11.10
2022-09-20T05:15:49.672Z,11.10
2022-09-20T05:18:51.322Z,11.10
2022-09-20T05:21:29.796Z,11.10
2022-09-20T05:24:17.009Z,11.10
2022-09-20T05:27:06.796Z,11.10
2022-09-20T05:30:05.167Z,11.20
2022-09-20T05:32:38.092Z,11.20
2022-09-20T05:35:07.864Z,11.20
2022-09-20T05:37:55.550Z,11.20
2022-09-20T05:40:47.349Z,11.20
2022-09-20T05:43:26.408Z,11.20
2022-09-20T05:46:03.151Z,11.20
2022-09-20T05:48:53.765Z,11.20
2022-09-20T05:51:42.256Z,11.20
2022-09-20T05:54:25.667Z,11.10
2022-09-20T05:57:04.189Z,11.10
2022-09-20T05:59:55.775Z,11.10
2022-09-20T06:02:51.127Z,11.10
2022-09-20T06:05:47.185Z,11.10
2022-09-20T06:08:26.168Z,11.10
2022-09-20T06:11:45.917Z,11.10
2022-09-20T06:14:36.504Z,11.20
2022-09-20T06:17:16.476Z,11.20
2022-09-20T06:20:24.492Z,11.20
2022-09-20T06:22:54.868Z,11.20
2022-09-20T06:25:59.310Z,11.20
2022-09-20T06:28:34.750Z,11.20
2022-09-20T06:31:01.892Z,11.30
2022-09-20T06:33:30.204Z,11.30
2022-09-20T06:36:25.183Z,11.30
2022-09-20T06:39:45.001Z,11.40
2022-09-20T06:42:11.684Z,11.40
2022-09-20T06:44:43.207Z,11.50
2022-09-20T06:47:14.486Z,11.50
2022-09-20T06:49:42.378Z,11.60
2022-09-20T06:52:17.663Z,11.70
2022-09-20T06:54:46.045Z,11.80
2022-09-20T06:57:19.719Z,11.80
2022-09-20T06:59:46.401Z,11.90
2022-09-20T07:02:13.174Z,12.00
2022-09-20T07:04:40.049Z,12.00
2022-09-20T07:07:09.753Z,12.10
2022-09-20T07:09:36.577Z,12.20
2022-09-20T07:12:03.473Z,12.30
2022-09-20T07:14:30.167Z,12.40
2022-09-20T07:16:56.857Z,12.60
2022-09-20T07:19:23.535Z,12.60
2022-09-20T07:21:50.344Z,12.80
2022-09-20T07:24:17.070Z,12.80
2022-09-20T07:27:02.177Z,12.90
2022-09-20T07:29:29.823Z,12.90
2022-09-20T07:31:57.399Z,13.00
2022-09-20T07:34:24.903Z,13.10
2022-09-20T07:36:52.246Z,13.20
2022-09-20T07:39:19.253Z,13.20
2022-09-20T07:41:48.378Z,13.30
2022-09-20T07:44:22.192Z,13.40
2022-09-20T07:46:53.060Z,13.40
2022-09-20T07:49:21.271Z,13.50
2022-09-20T07:51:51.090Z,13.50
2022-09-20T07:54:18.728Z,13.50
2022-09-20T07:56:46.140Z,13.50
2022-09-20T07:59:13.844Z,13.50
2022-09-20T08:01:41.155Z,13.60
2022-09-20T08:04:09.439Z,13.60
2022-09-20T08:06:38.158Z,13.70
2022-09-20T08:09:10.235Z,13.90
2022-09-20T08:11:40.185Z,14.00
2022-09-20T08:14:09.040Z,14.10
2022-09-20T08:16:41.537Z,14.10
2022-09-20T08:19:09.300Z,14.10
2022-09-20T08:21:38.790Z,14.10
2022-09-20T08:24:05.799Z,14.00
2022-09-20T08:26:32.594Z,14.00
2022-09-20T08:29:01.154Z,14.00
2022-09-20T08:31:34.334Z,14.10
2022-09-20T08:34:04.787Z,14.20
2022-09-20T08:36:36.413Z,14.20
2022-09-20T08:41:57.015Z,14.00
2022-09-20T08:44:28.047Z,13.90
2022-09-20T08:47:17.817Z,13.90
2022-09-20T08:49:47.690Z,13.80
2022-09-20T08:52:22.973Z,13.90
2022-09-20T08:54:50.402Z,14.10
2022-09-20T08:57:20.352Z,14.20
2022-09-20T08:59:47.256Z,14.40
2022-09-20T09:02:22.790Z,14.60
2022-09-20T09:04:51.642Z,14.90
2022-09-20T09:07:21.897Z,15.10
2022-09-20T09:09:52.100Z,15.40
2022-09-20T09:12:28.872Z,15.70
2022-09-20T09:15:07.849Z,15.70
2022-09-20T09:20:46.085Z,15.70
2022-09-20T09:23:28.179Z,15.60
2022-09-20T09:25:55.901Z,15.40
2022-09-20T09:28:31.320Z,15.40
2022-09-20T09:31:14.030Z,15.50
2022-09-20T09:33:45.796Z,15.80
2022-09-20T09:36:22.560Z,16.10
2022-09-20T09:38:49.695Z,16.40
2022-09-20T09:41:31.557Z,16.70
2022-09-20T09:44:00.859Z,16.90
2022-09-20T09:46:33.039Z,16.90
2022-09-20T09:49:21.579Z,16.90
2022-09-20T09:52:14.683Z,16.80
2022-09-20T09:54:50.733Z,17.00
2022-09-20T09:57:41.404Z,17.30
2022-09-20T10:00:21.567Z,17.30
2022-09-20T10:03:17.078Z,17.20
2022-09-20T10:06:04.543Z,17.00
2022-09-20T10:08:46.377Z,16.70
2022-09-20T10:11:37.973Z,16.10
2022-09-20T10:14:07.362Z,15.40
2022-09-20T10:16:59.643Z,15.10
2022-09-20T10:19:47.909Z,14.90
2022-09-20T10:22:35.942Z,14.90
2022-09-20T10:25:20.336Z,15.00
2022-09-20T10:28:11.773Z,15.10
2022-09-20T10:30:48.071Z,15.20
2022-09-20T10:33:37.611Z,15.40
2022-09-20T10:36:20.669Z,15.50
2022-09-20T10:39:29.397Z,15.80
2022-09-20T10:42:33.061Z,16.00
2022-09-20T10:45:44.116Z,16.10
2022-09-20T10:48:29.093Z,16.20
2022-09-20T10:51:05.211Z,16.40
2022-09-20T10:53:48.434Z,16.60
2022-09-20T10:56:43.149Z,16.90
2022-09-20T10:59:51.194Z,17.20
2022-09-20T11:02:36.087Z,17.70
2022-09-20T11:05:16.068Z,18.10
2022-09-20T11:08:05.000Z,18.30
2022-09-20T11:10:52.227Z,18.20
2022-09-20T11:13:38.667Z,18.00
2022-09-20T11:16:18.209Z,18.00
2022-09-20T11:18:59.014Z,18.10
2022-09-20T11:21:38.405Z,18.00
2022-09-20T11:24:30.912Z,18.00
2022-09-20T11:27:12.789Z,17.80
2022-09-20T11:30:09.622Z,17.50
2022-09-20T11:32:42.569Z,17.20
2022-09-20T11:35:14.646Z,17.10
2022-09-20T11:37:52.455Z,17.00
2022-09-20T11:40:40.865Z,16.90
2022-09-20T11:43:09.734Z,16.90
2022-09-20T11:45:40.146Z,17.00
2022-09-20T11:48:25.231Z,17.10
2022-09-20T11:51:10.738Z,17.20
2022-09-20T11:53:55.583Z,17.30
2022-09-20T11:56:28.634Z,17.60
2022-09-20T11:58:59.336Z,18.10
2022-09-20T12:01:32.310Z,18.50
2022-09-20T12:04:31.736Z,18.90
2022-09-20T12:07:05.941Z,19.30
2022-09-20T12:09:40.707Z,19.60
2022-09-20T12:12:33.533Z,19.50
2022-09-20T12:15:03.328Z,19.20
2022-09-20T12:17:48.333Z,18.80
2022-09-20T12:20:42.581Z,18.60
2022-09-20T12:23:38.349Z,18.40
2022-09-20T12:26:11.202Z,18.10
2022-09-20T12:28:41.605Z,17.90
2022-09-20T12:31:29.432Z,17.70
2022-09-20T12:33:59.436Z,17.70
2022-09-20T12:36:29.071Z,17.60
2022-09-20T12:39:11.943Z,17.70
2022-09-20T12:41:53.787Z,17.70
2022-09-20T12:44:26.420Z,17.70
2022-09-20T12:47:08.395Z,17.80
2022-09-20T12:50:02.281Z,17.90
2022-09-20T12:52:53.516Z,18.00
2022-09-20T12:55:46.288Z,18.10
2022-09-20T12:58:15.753Z,18.10
2022-09-20T13:00:50.242Z,18.20
2022-09-20T13:03:36.442Z,18.30
2022-09-20T13:06:14.908Z,18.30
2022-09-20T13:09:08.133Z,18.40
2022-09-20T13:11:54.521Z,18.60
2022-09-20T13:14:34.969Z,18.70
2022-09-20T13:17:19.270Z,18.80
2022-09-20T13:19:47.663Z,18.90
2022-09-20T13:22:32.985Z,19.10
2022-09-20T13:25:02.916Z,19.40
2022-09-20T13:27:52.521Z,19.50
2022-09-20T13:30:25.730Z,19.50
2022-09-20T13:32:53.044Z,19.50
2022-09-20T13:35:23.966Z,19.40
2022-09-20T13:38:02.166Z,19.20
2022-09-20T13:40:42.315Z,19.00
2022-09-20T13:43:23.614Z,18.90
2022-09-20T13:46:06.322Z,18.90
2022-09-20T13:48:33.105Z,19.00
2022-09-20T13:50:59.912Z,18.90
2022-09-20T13:53:41.116Z,18.80
2022-09-20T13:56:29.946Z,18.70
2022-09-20T13:58:59.954Z,18.60
2022-09-20T14:01:33.607Z,18.60
2022-09-20T14:04:16.189Z,18.70
2022-09-20T14:06:43.117Z,18.80
2022-09-20T14:09:32.703Z,18.80
2022-09-20T14:12:00.656Z,18.90
2022-09-20T14:14:28.779Z,18.90
2022-09-20T14:16:57.274Z,18.90
2022-09-20T14:19:40.722Z,18.80
2022-09-20T14:22:08.513Z,18.60
2022-09-20T14:24:37.248Z,18.50
2022-09-20T14:27:20.128Z,18.40
2022-09-20T14:29:52.662Z,18.30
2022-09-20T14:32:28.559Z,18.20
2022-09-20T14:35:13.177Z,18.30
2022-09-20T14:37:59.327Z,18.50
2022-09-20T14:40:40.773Z,18.60
2022-09-20T14:43:20.453Z,18.60
2022-09-20T14:45:53.849Z,18.50
2022-09-20T14:48:22.023Z,18.50
2022-09-20T14:51:18.002Z,18.30
2022-09-20T14:54:07.816Z,18.20
2022-09-20T14:56:37.871Z,18.10
2022-09-20T14:59:19.264Z,18.10
2022-09-20T15:01:59.574Z,18.10
2022-09-20T15:04:28.347Z,18.10
2022-09-20T15:06:56.889Z,18.20
2022-09-20T15:09:23.974Z,18.40
2022-09-20T15:12:15.930Z,18.50
2022-09-20T15:14:42.844Z,18.70
2022-09-20T15:17:19.043Z,18.90
2022-09-20T15:19:50.277Z,19.00
2022-09-20T15:22:17.658Z,19.10
2022-09-20T15:24:44.368Z,19.10
2022-09-20T15:27:12.346Z,19.50
2022-09-20T15:29:39.189Z,19.90
2022-09-20T15:32:06.611Z,19.70
2022-09-20T15:34:33.332Z,19.80
2022-09-20T15:37:00.050Z,21.70
2022-09-20T15:39:28.036Z,23.60
2022-09-20T15:41:54.785Z,24.80
2022-09-20T15:44:21.489Z,25.00
2022-09-20T15:46:50.643Z,25.00
2022-09-20T15:49:17.483Z,25.60
2022-09-20T15:51:44.397Z,25.80
2022-09-20T15:54:14.912Z,25.70
2022-09-20T15:56:42.240Z,25.10
2022-09-20T15:59:11.030Z,25.30
2022-09-20T16:01:40.005Z,25.70
2022-09-20T16:04:12.694Z,26.00
2022-09-20T16:06:41.114Z,26.30
2022-09-20T16:09:08.068Z,26.30
2022-09-20T16:11:35.175Z,26.00
2022-09-20T16:14:02.006Z,25.80
2022-09-20T16:16:30.321Z,26.30
2022-09-20T16:19:15.610Z,26.60
2022-09-20T16:21:44.424Z,26.70
2022-09-20T16:24:14.393Z,25.80
2022-09-20T16:26:41.391Z,24.30
2022-09-20T16:29:08.200Z,22.70
2022-09-20T16:31:40.251Z,21.70
2022-09-20T16:34:31.669Z,20.90
2022-09-20T16:37:00.852Z,20.10
2022-09-20T16:39:29.010Z,19.40
2022-09-20T16:42:01.132Z,18.80
2022-09-20T16:44:28.023Z,18.20
2022-09-20T16:46:58.625Z,17.80
2022-09-20T16:49:28.892Z,17.50
2022-09-20T16:51:55.816Z,17.10
2022-09-20T16:54:22.633Z,16.80
2022-09-20T16:56:51.153Z,16.50
2022-09-20T16:59:21.460Z,16.20
2022-09-20T17:01:49.680Z,16.00
2022-09-20T17:04:20.951Z,15.80
2022-09-20T17:06:48.936Z,15.70
2022-09-20T17:09:16.417Z,15.60
2022-09-20T17:11:49.378Z,15.40
2022-09-20T17:14:18.735Z,15.30
2022-09-20T17:16:47.890Z,15.20
2022-09-20T17:19:18.316Z,15.10
2022-09-20T17:21:49.758Z,15.00
2022-09-20T17:24:18.394Z,14.80
2022-09-20T17:26:45.864Z,14.70
2022-09-20T17:29:15.733Z,14.60
2022-09-20T17:31:48.783Z,14.50
2022-09-20T17:34:21.510Z,14.40
2022-09-20T17:36:49.162Z,14.20
2022-09-20T17:39:16.865Z,14.10
2022-09-20T17:41:48.292Z,13.90
2022-09-20T17:44:15.823Z,13.80
2022-09-20T17:46:47.974Z,13.70
2022-09-20T17:49:16.929Z,13.50
2022-09-20T17:51:44.698Z,13.30
2022-09-20T17:54:13.867Z,13.20
2022-09-20T17:56:43.602Z,13.10
2022-09-20T17:59:11.584Z,12.90
2022-09-20T18:01:39.208Z,12.80
2022-09-20T18:04:07.046Z,12.70
2022-09-20T18:06:44.494Z,12.60
2022-09-20T18:09:14.644Z,12.50
2022-09-20T18:11:49.822Z,12.30
2022-09-20T18:14:21.279Z,12.20
2022-09-20T18:16:48.217Z,12.10
2022-09-20T18:19:16.234Z,12.00
2022-09-20T18:21:43.848Z,11.90
2022-09-20T18:24:11.806Z,11.80
2022-09-20T18:26:39.910Z,11.70
2022-09-20T18:29:09.382Z,11.60
2022-09-20T18:31:39.851Z,11.60
2022-09-20T18:34:15.298Z,11.60
2022-09-20T18:36:42.535Z,11.60
2022-09-20T18:39:09.340Z,11.70
2022-09-20T18:41:38.330Z,11.70
2022-09-20T18:44:12.395Z,11.70
2022-09-20T18:46:40.654Z,11.70
2022-09-20T18:49:09.377Z,11.60
2022-09-20T18:51:39.657Z,11.60
2022-09-20T18:54:12.556Z,11.50
2022-09-20T18:56:47.324Z,11.50
2022-09-20T18:59:18.513Z,11.40
2022-09-20T19:01:54.208Z,11.30
2022-09-20T19:04:43.843Z,11.30
2022-09-20T19:07:27.638Z,11.20
2022-09-20T19:10:06.224Z,11.10
2022-09-20T19:12:39.813Z,11.00
2022-09-20T19:15:22.832Z,11.00
2022-09-20T19:18:22.917Z,10.90
2022-09-20T19:21:15.266Z,10.90
2022-09-20T19:24:09.890Z,10.80
2022-09-20T19:26:38.711Z,10.70
2022-09-20T19:29:19.647Z,10.60
2022-09-20T19:31:49.431Z,10.50
2022-09-20T19:34:20.379Z,10.50
2022-09-20T19:37:05.983Z,10.50
2022-09-20T19:40:10.345Z,10.50
2022-09-20T19:42:53.434Z,10.50
2022-09-20T19:45:36.030Z,10.40
2022-09-20T19:48:12.704Z,10.40
2022-09-20T19:50:46.820Z,10.40
2022-09-20T19:53:15.864Z,10.50
2022-09-20T19:55:53.817Z,10.50
2022-09-20T19:58:21.065Z,10.60
2022-09-20T20:00:48.049Z,10.70
2022-09-20T20:03:16.241Z,10.80
2022-09-20T20:05:51.957Z,10.80
2022-09-20T20:08:38.726Z,10.90
2022-09-20T20:11:20.720Z,10.80
2022-09-20T20:14:04.823Z,10.80
2022-09-20T20:16:46.865Z,10.80
2022-09-20T20:19:47.170Z,10.80
2022-09-20T20:22:19.645Z,10.80
2022-09-20T20:24:52.993Z,10.80
2022-09-20T20:27:20.983Z,10.80
2022-09-20T20:29:47.975Z,10.90
2022-09-20T20:32:15.166Z,11.00
2022-09-20T20:34:42.035Z,11.10
2022-09-20T20:37:08.873Z,11.20
2022-09-20T20:39:35.598Z,11.30
2022-09-20T20:42:03.547Z,11.40
2022-09-20T20:44:31.545Z,11.50
2022-09-20T20:46:59.540Z,11.50
2022-09-20T20:49:26.430Z,11.60
2022-09-20T20:51:53.797Z,11.60
2022-09-20T20:54:21.194Z,11.70
2022-09-20T20:56:47.889Z,11.70
2022-09-20T20:59:16.021Z,11.70
2022-09-20T21:01:44.632Z,11.70
2022-09-20T21:04:12.381Z,11.70
2022-09-20T21:06:40.846Z,11.70
2022-09-20T21:09:08.890Z,11.70
2022-09-20T21:11:44.271Z,11.70
2022-09-20T21:14:12.775Z,11.80
2022-09-20T21:16:43.353Z,11.80
2022-09-20T21:19:24.294Z,11.90
2022-09-20T21:21:53.516Z,11.90
2022-09-20T21:24:20.746Z,11.90
2022-09-20T21:26:48.611Z,11.90
2022-09-20T21:29:17.267Z,11.90
2022-09-20T21:31:46.068Z,11.90
2022-09-20T21:34:15.465Z,11.90
2022-09-20T21:36:42.654Z,11.80
2022-09-20T21:52:59.642Z,11.60
2022-09-20T21:56:10.082Z,11.60
2022-09-20T21:58:40.262Z,11.60
2022-09-20T22:01:21.380Z,11.50
2022-09-20T22:04:21.736Z,11.50
2022-09-20T22:07:18.321Z,11.40
2022-09-20T22:10:04.151Z,11.40
2022-09-20T22:12:34.584Z,11.30
2022-09-20T22:15:04.540Z,11.30
2022-09-20T22:17:34.685Z,11.20
2022-09-20T22:20:27.602Z,11.10
2022-09-20T22:26:23.440Z,10.90
2022-09-20T22:32:57.540Z,10.70
2022-09-20T22:35:52.512Z,10.70
2022-09-20T22:38:19.600Z,10.70
2022-09-20T22:40:58.906Z,10.70
2022-09-20T22:43:28.693Z,10.80
2022-09-20T22:46:03.622Z,10.80
2022-09-20T22:48:34.639Z,10.90
2022-09-20T22:51:07.232Z,10.90
2022-09-20T22:53:35.187Z,10.90
2022-09-20T22:56:06.963Z,10.90
2022-09-20T22:58:36.384Z,10.90
2022-09-20T23:01:07.177Z,10.80
2022-09-20T23:03:46.394Z,10.80
2022-09-20T23:06:22.099Z,10.70
2022-09-20T23:08:50.697Z,10.60
2022-09-20T23:11:18.338Z,10.50
2022-09-20T23:13:46.736Z,10.40
2022-09-20T23:16:19.190Z,10.30
2022-09-20T23:18:47.189Z,10.20
2022-09-20T23:21:14.428Z,10.10
2022-09-20T23:23:44.213Z,10.00
2022-09-20T23:26:25.836Z,9.90
2022-09-20T23:37:00.255Z,9.80
2022-09-20T23:42:19.573Z,9.70
2022-09-20T23:44:46.652Z,9.70
2022-09-20T23:47:14.149Z,9.80
2022-09-20T23:49:41.275Z,9.80
2022-09-20T23:52:08.523Z,9.90
2022-09-20T23:54:35.455Z,9.90
2022-09-20T23:57:02.284Z,10.00
2022-09-20T23:59:29.168Z,10.00
